Darstellungsparameter: Aktuell verwendete Einstellungen:
Skalierung der Graphiken ... ?
xyx+y,   Skalierungsfaktor:      Skalierung: Modus: x, Faktor: 1
Darstellungszeitraum ... ?
Vom - - bis: - -   Zeitraum: 26.04.2020 - 26.04.2020
Min/Max/Avg-Anzeige ... ?
Zeige MMA aktuell
Zeige MMA Monat
Zeige MMA alles
Zeige --A aktuell
Zeige --A Monat
Zeige --A alles
Keine MMA-Anzeige
MMA:
Average (ber die Originaldaten)
MMA-Basis: 26.04.2020 - 26.04.2020
Quicknavigation für Darstellung... ?
Tage:      1T, 2T, 3T, 5T -1T -2T -3T -5T +1T +2T +3T +5T
Wochen: 1W, 2W, 3W -1W -2W -3W +1W +2W +3W
Monate: 1M, 3M, 6M -1M -3M -6M +1M +3M +6M
Jahre:    1J, 3J, 5J, 10J -1J -3J -5J -10J +1J +3J +5J +10J
Nutze für die Darstellung ... ?
Originaldaten oder Mittelwerte auf ...
Stundenbasis Tagesbasis Wochenbasis
Monatsbasis Jahresbasis      Datenbasis: Original-Daten
Darstellen als:
Statistik (Auto) Statistik J:M      Darstellung:
Zur Graphik,    zurück zur Übersicht aller Sensoren.
 
Tabellarische Datenbersicht: ?
 
Sensor: Nr:Datum:Temp:Abs-Feuchte:Windchill:Wind:
Aussen-T/F 1 26-04-2020 00:00:00 8.3 C 6.24 g/m*3 8.3 C 0 km/h
2 26-04-2020 00:05:00 8.1 C 6.24 g/m*3 8.1 C 0 km/h
3 26-04-2020 00:10:00 7.9 C 6.24 g/m*3 7.9 C 0 km/h
4 26-04-2020 00:15:00 7.8 C 6.28 g/m*3 7.8 C 0 km/h
5 26-04-2020 00:20:00 7.6 C 6.28 g/m*3 7.6 C 0 km/h
6 26-04-2020 00:25:00 7.4 C 6.28 g/m*3 7.4 C 0 km/h
7 26-04-2020 00:30:00 7.3 C 6.24 g/m*3 7.3 C 0 km/h
8 26-04-2020 00:35:00 7.2 C 6.2 g/m*3 7.2 C 0 km/h
9 26-04-2020 00:40:00 7.1 C 6.24 g/m*3 7.1 C 0 km/h
10 26-04-2020 00:45:00 7 C 6.2 g/m*3 7 C 0 km/h
11 26-04-2020 00:50:00 6.9 C 6.24 g/m*3 6.9 C 0 km/h
12 26-04-2020 00:55:00 6.8 C 6.19 g/m*3 6.8 C 1.6 km/h
13 26-04-2020 01:00:00 6.6 C 6.19 g/m*3 6.6 C 1.6 km/h
14 26-04-2020 01:05:00 6.6 C 6.19 g/m*3 6.6 C 0 km/h
15 26-04-2020 01:10:00 6.4 C 6.11 g/m*3 6.4 C 0 km/h
16 26-04-2020 01:15:00 6.3 C 6.14 g/m*3 6.3 C 0 km/h
17 26-04-2020 01:20:00 6.2 C 6.1 g/m*3 6.2 C 0 km/h
18 26-04-2020 01:25:00 6.2 C 6.1 g/m*3 6.2 C 0 km/h
19 26-04-2020 01:30:00 6.1 C 6.14 g/m*3 6.1 C 0 km/h
20 26-04-2020 01:35:00 6 C 6.1 g/m*3 6 C 0 km/h
21 26-04-2020 01:40:00 5.9 C 6.06 g/m*3 5.9 C 0 km/h
22 26-04-2020 01:45:00 5.8 C 6.02 g/m*3 5.8 C 0 km/h
23 26-04-2020 01:50:00 5.7 C 6.05 g/m*3 5.7 C 0 km/h
24 26-04-2020 01:55:00 5.7 C 6.05 g/m*3 5.7 C 0 km/h
25 26-04-2020 02:00:00 5.6 C 6.01 g/m*3 5.6 C 0 km/h
Sensor: Nr:Datum:Temp:Abs-Feuchte:Windchill:Wind:
Aussen-T/F 26 26-04-2020 02:05:00 5.5 C 5.97 g/m*3 5.5 C 0 km/h
27 26-04-2020 02:10:00 5.4 C 6 g/m*3 5.4 C 0 km/h
28 26-04-2020 02:15:00 5.4 C 6 g/m*3 5.4 C 0 km/h
29 26-04-2020 02:20:00 5.3 C 5.96 g/m*3 5.3 C 0 km/h
30 26-04-2020 02:25:00 5.3 C 6.03 g/m*3 5.3 C 1.6 km/h
31 26-04-2020 02:30:00 5.3 C 6.03 g/m*3 5.3 C 0 km/h
32 26-04-2020 02:35:00 5.2 C 5.99 g/m*3 5.2 C 0 km/h
33 26-04-2020 02:40:00 5.2 C 5.99 g/m*3 5.2 C 4.8 km/h
34 26-04-2020 02:45:00 5.2 C 5.99 g/m*3 5.2 C 0 km/h
35 26-04-2020 02:50:00 5.3 C 6.03 g/m*3 5.3 C 0 km/h
36 26-04-2020 02:55:00 5.2 C 5.99 g/m*3 5.2 C 0 km/h
37 26-04-2020 03:00:00 5.2 C 5.99 g/m*3 5.2 C 0 km/h
38 26-04-2020 03:05:00 5.1 C 5.95 g/m*3 5.1 C 0 km/h
39 26-04-2020 03:10:00 4.9 C 5.87 g/m*3 4.9 C 0 km/h
40 26-04-2020 03:15:00 4.9 C 5.94 g/m*3 4.9 C 1.6 km/h
41 26-04-2020 03:20:00 4.8 C 5.9 g/m*3 4.8 C 1.6 km/h
42 26-04-2020 03:25:00 4.8 C 5.9 g/m*3 4.8 C 0 km/h
43 26-04-2020 03:30:00 4.7 C 5.86 g/m*3 4.7 C 0 km/h
44 26-04-2020 03:35:00 4.7 C 5.86 g/m*3 4.7 C 1.6 km/h
45 26-04-2020 03:40:00 4.6 C 5.89 g/m*3 4.6 C 0 km/h
46 26-04-2020 03:45:00 4.6 C 5.89 g/m*3 4.6 C 0 km/h
47 26-04-2020 03:50:00 4.5 C 5.85 g/m*3 4.5 C 0 km/h
48 26-04-2020 03:55:00 4.4 C 5.81 g/m*3 4.4 C 0 km/h
49 26-04-2020 04:00:00 4.4 C 5.81 g/m*3 4.4 C 0 km/h
50 26-04-2020 04:05:00 4.4 C 5.81 g/m*3 4.4 C 0 km/h
Sensor: Nr:Datum:Temp:Abs-Feuchte:Windchill:Wind:
Aussen-T/F 51 26-04-2020 04:10:00 4.3 C 5.77 g/m*3 4.3 C 0 km/h
52 26-04-2020 04:15:00 4.2 C 5.73 g/m*3 4.2 C 0 km/h
53 26-04-2020 04:20:00 4.1 C 5.7 g/m*3 4.1 C 0 km/h
54 26-04-2020 04:25:00 4 C 5.66 g/m*3 4 C 0 km/h
55 26-04-2020 04:30:00 3.9 C 5.68 g/m*3 3.9 C 0 km/h
56 26-04-2020 04:35:00 3.9 C 5.68 g/m*3 3.9 C 0 km/h
57 26-04-2020 04:40:00 3.9 C 5.68 g/m*3 3.9 C 0 km/h
58 26-04-2020 04:45:00 3.8 C 5.71 g/m*3 3.8 C 0 km/h
59 26-04-2020 04:50:00 3.8 C 5.71 g/m*3 3.8 C 0 km/h
60 26-04-2020 04:55:00 3.7 C 5.67 g/m*3 3.7 C 0 km/h
61 26-04-2020 05:00:00 3.7 C 5.67 g/m*3 3.7 C 0 km/h
62 26-04-2020 05:05:00 3.7 C 5.67 g/m*3 3.7 C 0 km/h
63 26-04-2020 05:10:00 3.7 C 5.67 g/m*3 3.7 C 0 km/h
64 26-04-2020 05:15:00 3.6 C 5.63 g/m*3 3.6 C 0 km/h
65 26-04-2020 05:20:00 3.6 C 5.63 g/m*3 3.6 C 0 km/h
66 26-04-2020 05:25:00 3.5 C 5.6 g/m*3 3.5 C 0 km/h
67 26-04-2020 05:30:00 3.4 C 5.56 g/m*3 3.4 C 0 km/h
68 26-04-2020 05:35:00 3.4 C 5.62 g/m*3 3.4 C 0 km/h
69 26-04-2020 05:40:00 3.3 C 5.58 g/m*3 3.3 C 0 km/h
70 26-04-2020 05:45:00 3.3 C 5.58 g/m*3 3.3 C 0 km/h
71 26-04-2020 05:50:00 3.3 C 5.52 g/m*3 3.3 C 0 km/h
72 26-04-2020 05:55:00 3.2 C 5.54 g/m*3 3.2 C 0 km/h
73 26-04-2020 06:00:00 3.1 C 5.51 g/m*3 3.1 C 0 km/h
74 26-04-2020 06:05:00 3 C 5.47 g/m*3 3 C 0 km/h
75 26-04-2020 06:10:00 3 C 5.47 g/m*3 3 C 0 km/h
Sensor: Nr:Datum:Temp:Abs-Feuchte:Windchill:Wind:
Aussen-T/F 76 26-04-2020 06:15:00 3 C 5.47 g/m*3 3 C 0 km/h
77 26-04-2020 06:20:00 2.9 C 5.43 g/m*3 2.9 C 0 km/h
78 26-04-2020 06:25:00 2.9 C 5.43 g/m*3 2.9 C 0 km/h
79 26-04-2020 06:30:00 2.9 C 5.43 g/m*3 2.9 C 0 km/h
80 26-04-2020 06:35:00 2.9 C 5.49 g/m*3 2.9 C 0 km/h
81 26-04-2020 06:40:00 2.9 C 5.49 g/m*3 2.9 C 0 km/h
82 26-04-2020 06:45:00 2.9 C 5.43 g/m*3 2.9 C 0 km/h
83 26-04-2020 06:50:00 2.8 C 5.46 g/m*3 2.8 C 0 km/h
84 26-04-2020 06:55:00 2.8 C 5.46 g/m*3 2.8 C 0 km/h
85 26-04-2020 07:00:00 2.8 C 5.46 g/m*3 2.8 C 0 km/h
86 26-04-2020 07:05:00 2.9 C 5.49 g/m*3 2.9 C 0 km/h
87 26-04-2020 07:10:00 2.9 C 5.49 g/m*3 2.9 C 0 km/h
88 26-04-2020 07:15:00 2.9 C 5.49 g/m*3 2.9 C 0 km/h
89 26-04-2020 07:20:00 3.1 C 5.57 g/m*3 3.1 C 0 km/h
90 26-04-2020 07:25:00 3.1 C 5.57 g/m*3 3.1 C 0 km/h
91 26-04-2020 07:30:00 3.2 C 5.6 g/m*3 3.2 C 0 km/h
92 26-04-2020 07:35:00 3.2 C 5.6 g/m*3 3.2 C 0 km/h
93 26-04-2020 07:40:00 3.2 C 5.66 g/m*3 3.2 C 0 km/h
94 26-04-2020 07:45:00 3.2 C 5.66 g/m*3 3.2 C 0 km/h
95 26-04-2020 07:50:00 3.3 C 5.7 g/m*3 3.3 C 0 km/h
96 26-04-2020 07:55:00 3.3 C 5.7 g/m*3 3.3 C 0 km/h
97 26-04-2020 08:00:00 3.4 C 5.74 g/m*3 3.4 C 0 km/h
98 26-04-2020 08:05:00 3.5 C 5.78 g/m*3 3.5 C 0 km/h
99 26-04-2020 08:10:00 3.6 C 5.82 g/m*3 3.6 C 0 km/h
100 26-04-2020 08:15:00 3.7 C 5.86 g/m*3 3.7 C 1.6 km/h
Sensor: Nr:Datum:Temp:Abs-Feuchte:Windchill:Wind:
Aussen-T/F 101 26-04-2020 08:20:00 3.8 C 5.9 g/m*3 3.8 C 0 km/h
102 26-04-2020 08:25:00 3.8 C 5.9 g/m*3 3.8 C 0 km/h
103 26-04-2020 08:30:00 3.9 C 5.94 g/m*3 3.9 C 0 km/h
104 26-04-2020 08:35:00 4.1 C 6.02 g/m*3 4.1 C 0 km/h
105 26-04-2020 08:40:00 4.2 C 6.06 g/m*3 4.2 C 0 km/h
106 26-04-2020 08:45:00 4.3 C 6.16 g/m*3 4.3 C 0 km/h
107 26-04-2020 08:50:00 4.4 C 6.2 g/m*3 4.4 C 0 km/h
108 26-04-2020 08:55:00 4.6 C 6.29 g/m*3 4.6 C 0 km/h
109 26-04-2020 09:00:00 4.7 C 6.33 g/m*3 4.7 C 0 km/h
110 26-04-2020 09:05:00 4.9 C 6.41 g/m*3 4.9 C 0 km/h
111 26-04-2020 09:10:00 5.1 C 6.5 g/m*3 5.1 C 0 km/h
112 26-04-2020 09:15:00 5.2 C 6.54 g/m*3 5.2 C 0 km/h
113 26-04-2020 09:20:00 5.3 C 6.58 g/m*3 5.3 C 0 km/h
114 26-04-2020 09:25:00 5.5 C 6.67 g/m*3 5.5 C 0 km/h
115 26-04-2020 09:30:00 5.7 C 6.76 g/m*3 5.7 C 0 km/h
116 26-04-2020 09:35:00 5.8 C 6.81 g/m*3 5.8 C 0 km/h
117 26-04-2020 09:40:00 6 C 6.9 g/m*3 6 C 0 km/h
118 26-04-2020 09:45:00 6.2 C 6.99 g/m*3 6.2 C 0 km/h
119 26-04-2020 09:50:00 6.4 C 7.08 g/m*3 6.4 C 0 km/h
120 26-04-2020 09:55:00 6.6 C 7.17 g/m*3 6.6 C 0 km/h
121 26-04-2020 10:00:00 6.8 C 7.27 g/m*3 6.8 C 0 km/h
122 26-04-2020 10:05:00 6.9 C 7.24 g/m*3 6.9 C 0 km/h
123 26-04-2020 10:10:00 7.2 C 7.38 g/m*3 7.2 C 1.6 km/h
124 26-04-2020 10:15:00 7.3 C 7.35 g/m*3 7.3 C 0 km/h
125 26-04-2020 10:20:00 7.6 C 7.49 g/m*3 7.6 C 0 km/h
Sensor: Nr:Datum:Temp:Abs-Feuchte:Windchill:Wind:
Aussen-T/F 126 26-04-2020 10:25:00 7.8 C 7.51 g/m*3 7.8 C 0 km/h
127 26-04-2020 10:30:00 8.2 C 7.62 g/m*3 8.2 C 0 km/h
128 26-04-2020 10:35:00 8.4 C 7.63 g/m*3 8.4 C 0 km/h
129 26-04-2020 10:40:00 8.7 C 7.7 g/m*3 8.7 C 0 km/h
130 26-04-2020 10:45:00 8.9 C 7.62 g/m*3 8.9 C 1.6 km/h
131 26-04-2020 10:50:00 9.3 C 7.64 g/m*3 9.3 C 1.6 km/h
132 26-04-2020 10:55:00 9.7 C 7.84 g/m*3 9.7 C 0 km/h
133 26-04-2020 11:00:00 10.1 C 7.94 g/m*3 10.1 C 1.6 km/h
134 26-04-2020 11:05:00 10.5 C 8.05 g/m*3 10.5 C 0 km/h
135 26-04-2020 11:10:00 10.9 C 7.86 g/m*3 10.9 C 0 km/h
136 26-04-2020 11:15:00 11.3 C 7.65 g/m*3 11.3 C 3.2 km/h
137 26-04-2020 11:20:00 11.8 C 7.58 g/m*3 11.8 C 4.8 km/h
138 26-04-2020 11:25:00 12.3 C 7.82 g/m*3 12.3 C 1.6 km/h
139 26-04-2020 11:30:00 12.6 C 7.74 g/m*3 12.6 C 1.6 km/h
140 26-04-2020 11:35:00 12.8 C 7.5 g/m*3 12.8 C 1.6 km/h
141 26-04-2020 11:40:00 13.2 C 7.69 g/m*3 13.2 C 1.6 km/h
142 26-04-2020 11:45:00 13.5 C 7.6 g/m*3 13.5 C 3.2 km/h
143 26-04-2020 11:50:00 13.7 C 7.46 g/m*3 13.7 C 1.6 km/h
144 26-04-2020 11:55:00 13.9 C 7.31 g/m*3 13.9 C 0 km/h
145 26-04-2020 12:00:00 14.2 C 7.33 g/m*3 14.2 C 4.8 km/h
146 26-04-2020 12:05:00 14.4 C 7.29 g/m*3 14.4 C 3.2 km/h
147 26-04-2020 12:10:00 14.6 C 7.13 g/m*3 14.6 C 1.6 km/h
148 26-04-2020 12:15:00 14.8 C 6.97 g/m*3 14.8 C 3.2 km/h
149 26-04-2020 12:20:00 15.1 C 6.84 g/m*3 15.1 C 1.6 km/h
150 26-04-2020 12:25:00 15.3 C 6.79 g/m*3 15.3 C 4.8 km/h
Sensor: Nr:Datum:Temp:Abs-Feuchte:Windchill:Wind:
Aussen-T/F 151 26-04-2020 12:30:00 15.4 C 6.83 g/m*3 15.4 C 3.2 km/h
152 26-04-2020 12:35:00 15.6 C 6.92 g/m*3 15.6 C 4.8 km/h
153 26-04-2020 12:40:00 15.7 C 7.09 g/m*3 15.7 C 4.8 km/h
154 26-04-2020 12:45:00 15.8 C 6.87 g/m*3 15.8 C 8.1 km/h
155 26-04-2020 12:50:00 16.1 C 6.44 g/m*3 16.1 C 8.1 km/h
156 26-04-2020 12:55:00 16.2 C 6.62 g/m*3 16.2 C 9.7 km/h
157 26-04-2020 13:00:00 16.3 C 6.66 g/m*3 16.3 C 4.8 km/h
158 26-04-2020 13:05:00 16.3 C 6.66 g/m*3 16.3 C 11.3 km/h
159 26-04-2020 13:10:00 16.6 C 6.64 g/m*3 16.6 C 8.1 km/h
160 26-04-2020 13:15:00 16.8 C 6.58 g/m*3 16.8 C 11.3 km/h
161 26-04-2020 13:20:00 16.8 C 6.58 g/m*3 16.8 C 9.7 km/h
162 26-04-2020 13:25:00 16.8 C 6.58 g/m*3 16.8 C 4.8 km/h
163 26-04-2020 13:30:00 16.9 C 6.47 g/m*3 16.9 C 11.3 km/h
164 26-04-2020 13:35:00 17 C 6.66 g/m*3 17 C 3.2 km/h
165 26-04-2020 13:40:00 17.2 C 6.88 g/m*3 17.2 C 6.4 km/h
166 26-04-2020 13:45:00 17.3 C 6.48 g/m*3 17.3 C 6.4 km/h
167 26-04-2020 13:50:00 17.4 C 6.22 g/m*3 17.4 C 8.1 km/h
168 26-04-2020 13:55:00 17.4 C 6.22 g/m*3 17.4 C 8.1 km/h
169 26-04-2020 14:00:00 17.4 C 6.37 g/m*3 17.4 C 3.2 km/h
170 26-04-2020 14:05:00 17.5 C 6.56 g/m*3 17.5 C 9.7 km/h
171 26-04-2020 14:10:00 17.6 C 6.6 g/m*3 17.6 C 9.7 km/h
172 26-04-2020 14:15:00 17.7 C 6.94 g/m*3 17.7 C 4.8 km/h
173 26-04-2020 14:20:00 17.7 C 6.79 g/m*3 17.7 C 11.3 km/h
174 26-04-2020 14:25:00 17.7 C 6.94 g/m*3 17.7 C 11.3 km/h
175 26-04-2020 14:30:00 17.8 C 6.98 g/m*3 17.8 C 14.5 km/h
Sensor: Nr:Datum:Temp:Abs-Feuchte:Windchill:Wind:
Aussen-T/F 176 26-04-2020 14:35:00 17.9 C 6.72 g/m*3 17.9 C 9.7 km/h
177 26-04-2020 14:40:00 17.9 C 6.57 g/m*3 17.9 C 8.1 km/h
178 26-04-2020 14:45:00 18 C 6.76 g/m*3 18 C 9.7 km/h
179 26-04-2020 14:50:00 18.2 C 6.68 g/m*3 18.2 C 9.7 km/h
180 26-04-2020 14:55:00 18.2 C 6.84 g/m*3 18.2 C 6.4 km/h
181 26-04-2020 15:00:00 18.2 C 6.37 g/m*3 18.2 C 9.7 km/h
182 26-04-2020 15:05:00 18.3 C 6.72 g/m*3 18.3 C 8.1 km/h
183 26-04-2020 15:10:00 18.6 C 6.53 g/m*3 18.6 C 9.7 km/h
184 26-04-2020 15:15:00 18.9 C 6.48 g/m*3 18.9 C 9.7 km/h
185 26-04-2020 15:20:00 19.1 C 6.72 g/m*3 19.1 C 6.4 km/h
186 26-04-2020 15:25:00 19.3 C 6.63 g/m*3 19.3 C 9.7 km/h
187 26-04-2020 15:30:00 19.3 C 6.47 g/m*3 19.3 C 6.4 km/h
188 26-04-2020 15:35:00 19.3 C 6.63 g/m*3 19.3 C 6.4 km/h
189 26-04-2020 15:40:00 19.5 C 6.71 g/m*3 19.5 C 4.8 km/h
190 26-04-2020 15:45:00 19.4 C 6.51 g/m*3 19.4 C 4.8 km/h
191 26-04-2020 15:50:00 19.5 C 6.55 g/m*3 19.5 C 3.2 km/h
192 26-04-2020 15:55:00 19.9 C 6.7 g/m*3 19.9 C 6.4 km/h
193 26-04-2020 16:00:00 20.3 C 6.68 g/m*3 20.3 C 4.8 km/h
194 26-04-2020 16:05:00 20.5 C 6.58 g/m*3 20.5 C 4.8 km/h
195 26-04-2020 16:10:00 20.6 C 6.62 g/m*3 20.6 C 6.4 km/h
196 26-04-2020 16:15:00 20.6 C 6.44 g/m*3 20.6 C 8.1 km/h
197 26-04-2020 16:20:00 20.9 C 6.74 g/m*3 20.9 C 6.4 km/h
198 26-04-2020 16:25:00 21.3 C 6.34 g/m*3 21.3 C 9.7 km/h
199 26-04-2020 16:30:00 21.3 C 5.96 g/m*3 21.3 C 4.8 km/h
200 26-04-2020 16:35:00 21.4 C 6.37 g/m*3 21.4 C 9.7 km/h
Sensor: Nr:Datum:Temp:Abs-Feuchte:Windchill:Wind:
Aussen-T/F 201 26-04-2020 16:40:00 21.6 C 6.26 g/m*3 21.6 C 6.4 km/h
202 26-04-2020 16:45:00 21.7 C 6.29 g/m*3 21.7 C 4.8 km/h
203 26-04-2020 16:50:00 21.7 C 6.49 g/m*3 21.7 C 8.1 km/h
204 26-04-2020 16:55:00 21.7 C 6.29 g/m*3 21.7 C 12.9 km/h
205 26-04-2020 17:00:00 21.6 C 6.07 g/m*3 21.6 C 8.1 km/h
206 26-04-2020 17:05:00 21.8 C 6.52 g/m*3 21.8 C 4.8 km/h
207 26-04-2020 17:10:00 22.1 C 6.05 g/m*3 22.1 C 6.4 km/h
208 26-04-2020 17:15:00 22.1 C 6.05 g/m*3 22.1 C 9.7 km/h
209 26-04-2020 17:20:00 22.2 C 6.48 g/m*3 22.2 C 6.4 km/h
210 26-04-2020 17:25:00 22.4 C 5.96 g/m*3 22.4 C 6.4 km/h
211 26-04-2020 17:30:00 22.5 C 6.19 g/m*3 22.5 C 6.4 km/h
212 26-04-2020 17:35:00 22.6 C 5.62 g/m*3 22.6 C 3.2 km/h
213 26-04-2020 17:40:00 22.9 C 5.93 g/m*3 22.9 C 4.8 km/h
214 26-04-2020 17:45:00 22.8 C 5.28 g/m*3 22.8 C 6.4 km/h
215 26-04-2020 17:50:00 22.5 C 5.39 g/m*3 22.5 C 6.4 km/h
216 26-04-2020 17:55:00 22.5 C 5.79 g/m*3 22.5 C 4.8 km/h
217 26-04-2020 18:00:00 22.4 C 5.36 g/m*3 22.4 C 6.4 km/h
218 26-04-2020 18:05:00 22.4 C 5.36 g/m*3 22.4 C 1.6 km/h
219 26-04-2020 18:10:00 22.5 C 5.79 g/m*3 22.5 C 6.4 km/h
220 26-04-2020 18:15:00 22.6 C 5.62 g/m*3 22.6 C 4.8 km/h
221 26-04-2020 18:20:00 22.8 C 5.69 g/m*3 22.8 C 4.8 km/h
222 26-04-2020 18:25:00 22.8 C 5.69 g/m*3 22.8 C 4.8 km/h
223 26-04-2020 18:30:00 23 C 5.76 g/m*3 23 C 4.8 km/h
224 26-04-2020 18:35:00 22.9 C 5.31 g/m*3 22.9 C 6.4 km/h
225 26-04-2020 18:40:00 22.9 C 5.31 g/m*3 22.9 C 6.4 km/h
Sensor: Nr:Datum:Temp:Abs-Feuchte:Windchill:Wind:
Aussen-T/F 226 26-04-2020 18:45:00 22.8 C 5.49 g/m*3 22.8 C 4.8 km/h
227 26-04-2020 18:50:00 22.6 C 5.22 g/m*3 22.6 C 3.2 km/h
228 26-04-2020 18:55:00 22.5 C 5.19 g/m*3 22.5 C 6.4 km/h
229 26-04-2020 19:00:00 22.4 C 5.36 g/m*3 22.4 C 3.2 km/h
230 26-04-2020 19:05:00 22.3 C 5.53 g/m*3 22.3 C 1.6 km/h
231 26-04-2020 19:10:00 22.2 C 5.3 g/m*3 22.2 C 3.2 km/h
232 26-04-2020 19:15:00 21.8 C 5.18 g/m*3 21.8 C 4.8 km/h
233 26-04-2020 19:20:00 21.4 C 5.25 g/m*3 21.4 C 4.8 km/h
234 26-04-2020 19:25:00 21 C 5.13 g/m*3 21 C 4.8 km/h
235 26-04-2020 19:30:00 20.7 C 5.04 g/m*3 20.7 C 3.2 km/h
236 26-04-2020 19:35:00 20.6 C 5.01 g/m*3 20.6 C 3.2 km/h
237 26-04-2020 19:40:00 20.4 C 5.13 g/m*3 20.4 C 3.2 km/h
238 26-04-2020 19:45:00 20.3 C 6.68 g/m*3 20.3 C 1.6 km/h
239 26-04-2020 19:50:00 20.2 C 6.82 g/m*3 20.2 C 3.2 km/h
240 26-04-2020 19:55:00 19.9 C 7.04 g/m*3 19.9 C 1.6 km/h
241 26-04-2020 20:00:00 19.6 C 6.92 g/m*3 19.6 C 3.2 km/h
242 26-04-2020 20:05:00 19.2 C 6.76 g/m*3 19.2 C 3.2 km/h
243 26-04-2020 20:10:00 18.7 C 6.72 g/m*3 18.7 C 1.6 km/h
244 26-04-2020 20:15:00 18.3 C 6.72 g/m*3 18.3 C 3.2 km/h
245 26-04-2020 20:20:00 17.7 C 6.49 g/m*3 17.7 C 4.8 km/h
246 26-04-2020 20:25:00 17.1 C 6.4 g/m*3 17.1 C 4.8 km/h
247 26-04-2020 20:30:00 16.6 C 6.36 g/m*3 16.6 C 4.8 km/h
248 26-04-2020 20:35:00 16.1 C 6.31 g/m*3 16.1 C 6.4 km/h
249 26-04-2020 20:40:00 15.7 C 6.02 g/m*3 15.7 C 6.4 km/h
250 26-04-2020 20:45:00 15.3 C 5.75 g/m*3 15.3 C 6.4 km/h
Sensor: Nr:Datum:Temp:Abs-Feuchte:Windchill:Wind:
Aussen-T/F 251 26-04-2020 20:50:00 15.1 C 6.06 g/m*3 15.1 C 6.4 km/h
252 26-04-2020 20:55:00 14.8 C 6.08 g/m*3 14.8 C 4.8 km/h
253 26-04-2020 21:00:00 14.4 C 5.93 g/m*3 14.4 C 4.8 km/h
254 26-04-2020 21:05:00 14.2 C 5.86 g/m*3 14.2 C 6.4 km/h
255 26-04-2020 21:10:00 13.9 C 6.11 g/m*3 13.9 C 4.8 km/h
256 26-04-2020 21:15:00 13.7 C 6.16 g/m*3 13.7 C 4.8 km/h
257 26-04-2020 21:20:00 13.6 C 6.36 g/m*3 13.6 C 4.8 km/h
258 26-04-2020 21:25:00 13.3 C 6.35 g/m*3 13.3 C 4.8 km/h
259 26-04-2020 21:30:00 13.1 C 6.39 g/m*3 13.1 C 6.4 km/h
260 26-04-2020 21:35:00 13 C 6.46 g/m*3 13 C 3.2 km/h
261 26-04-2020 21:40:00 12.9 C 6.54 g/m*3 12.9 C 3.2 km/h
262 26-04-2020 21:45:00 12.8 C 6.61 g/m*3 12.8 C 4.8 km/h
263 26-04-2020 21:50:00 12.6 C 6.64 g/m*3 12.6 C 3.2 km/h
264 26-04-2020 21:55:00 12.4 C 6.56 g/m*3 12.4 C 1.6 km/h
265 26-04-2020 22:00:00 12.3 C 6.62 g/m*3 12.3 C 3.2 km/h
266 26-04-2020 22:05:00 12.2 C 6.8 g/m*3 12.2 C 0 km/h
267 26-04-2020 22:10:00 12 C 6.71 g/m*3 12 C 0 km/h
268 26-04-2020 22:15:00 11.8 C 6.74 g/m*3 11.8 C 0 km/h
269 26-04-2020 22:20:00 11.6 C 6.76 g/m*3 11.6 C 1.6 km/h
270 26-04-2020 22:25:00 11.4 C 6.77 g/m*3 11.4 C 0 km/h
271 26-04-2020 22:30:00 11.3 C 6.73 g/m*3 11.3 C 0 km/h
272 26-04-2020 22:35:00 11.1 C 6.75 g/m*3 11.1 C 0 km/h
273 26-04-2020 22:40:00 10.9 C 6.66 g/m*3 10.9 C 0 km/h
274 26-04-2020 22:45:00 10.8 C 6.72 g/m*3 10.8 C 0 km/h
275 26-04-2020 22:50:00 10.6 C 6.73 g/m*3 10.6 C 0 km/h
Sensor: Nr:Datum:Temp:Abs-Feuchte:Windchill:Wind:
Aussen-T/F 276 26-04-2020 22:55:00 10.4 C 6.55 g/m*3 10.4 C 0 km/h
277 26-04-2020 23:00:00 10.2 C 6.57 g/m*3 10.2 C 0 km/h
278 26-04-2020 23:05:00 10.1 C 6.52 g/m*3 10.1 C 0 km/h
279 26-04-2020 23:10:00 9.9 C 6.54 g/m*3 9.9 C 0 km/h
280 26-04-2020 23:15:00 9.8 C 6.49 g/m*3 9.8 C 0 km/h
281 26-04-2020 23:20:00 9.7 C 6.45 g/m*3 9.7 C 0 km/h
282 26-04-2020 23:25:00 9.6 C 6.41 g/m*3 9.6 C 1.6 km/h
283 26-04-2020 23:30:00 9.4 C 6.33 g/m*3 9.4 C 0 km/h
284 26-04-2020 23:35:00 9.4 C 6.33 g/m*3 9.4 C 0 km/h
285 26-04-2020 23:40:00 9.3 C 6.29 g/m*3 9.3 C 1.6 km/h
286 26-04-2020 23:45:00 9.3 C 6.29 g/m*3 9.3 C 0 km/h
287 26-04-2020 23:50:00 9.2 C 6.34 g/m*3 9.2 C 1.6 km/h
288 26-04-2020 23:55:00 9.1 C 6.21 g/m*3 9.1 C 0 km/h

Legende:
   Min
   Max


Maximal/Minimal-Werte vom 26.04.2020 - 26.04.2020

Sensor Min Max Avg
Temp
(Aussen-T/F)
2.8 °C
26-04-2020  06:50:00
23 °C
26-04-2020  18:30:00
11.44 °C
Abs-Feuchte
(Aussen-T/F)
5.01 g/m*3
26-04-2020  19:35:00
8.05 g/m*3
26-04-2020  11:05:00
6.25 g/m*3
Windchill
(Aussen-T/F)
2.8 C
26-04-2020  06:50:00
23 C
26-04-2020  18:30:00
11.4 C

Die Daten stammen von einer Davis Vantage Pro 2 Wetter-Station und werden unter Linux mit der Software wview2wettercgi und aufbereitet. Alle Angaben erfolgen ohne Gewähr für ihre Vollständigkeit oder Richtigkeit.
Kontakt: Rainer Krienke krienke@uni-koblenz.de . Meine Webseiten an der Uni Koblenz oder privat.
Version: $Revision: 0.78 $